createdAt,value
2024-02-24T00:01:12.637Z,63.42
2024-02-24T00:03:50.191Z,62.60
2024-02-24T00:06:20.131Z,66.80
2024-02-24T00:08:51.154Z,63.74
2024-02-24T00:11:26.092Z,64.47
2024-02-24T00:13:54.398Z,61.94
2024-02-24T00:16:22.949Z,64.27
2024-02-24T00:18:51.514Z,68.43
2024-02-24T00:21:21.174Z,66.87
2024-02-24T00:23:49.716Z,65.41
2024-02-24T00:26:18.350Z,68.80
2024-02-24T00:28:47.204Z,68.13
2024-02-24T00:31:15.790Z,66.56
2024-02-24T00:33:44.947Z,64.41
2024-02-24T00:36:13.333Z,64.87
2024-02-24T00:38:43.153Z,64.06
2024-02-24T00:41:11.417Z,67.30
2024-02-24T00:43:39.719Z,64.95
2024-02-24T00:46:09.757Z,66.78
2024-02-24T00:48:43.858Z,65.67
2024-02-24T00:51:15.568Z,64.00
2024-02-24T00:53:45.238Z,61.99
2024-02-24T00:56:20.273Z,62.92
2024-02-24T00:58:51.397Z,63.14
2024-02-24T01:01:19.712Z,63.63
2024-02-24T01:03:48.120Z,66.19
2024-02-24T01:06:22.205Z,66.75
2024-02-24T01:08:52.077Z,63.64
2024-02-24T01:11:20.452Z,65.39
2024-02-24T01:13:48.757Z,62.09
2024-02-24T01:16:23.027Z,60.79
2024-02-24T01:18:54.457Z,63.41
2024-02-24T01:21:28.863Z,64.85
2024-02-24T01:23:58.433Z,61.78
2024-02-24T01:26:29.858Z,63.25
2024-02-24T01:29:07.354Z,63.42
2024-02-24T01:31:38.639Z,66.72
2024-02-24T01:34:07.354Z,68.78
2024-02-24T01:36:35.950Z,69.67
2024-02-24T01:39:05.615Z,65.27
2024-02-24T01:41:37.017Z,67.67
2024-02-24T01:44:05.799Z,66.07
2024-02-24T01:46:34.155Z,65.81
2024-02-24T01:49:02.968Z,63.70
2024-02-24T01:51:31.402Z,62.67
2024-02-24T01:53:59.677Z,62.80
2024-02-24T01:56:34.505Z,64.87
2024-02-24T01:59:09.401Z,63.08
2024-02-24T02:01:38.780Z,64.36
2024-02-24T02:04:09.318Z,65.67
2024-02-24T02:06:38.472Z,64.52
2024-02-24T02:09:06.791Z,61.88
2024-02-24T02:11:47.642Z,65.50
2024-02-24T02:14:35.992Z,59.92
2024-02-24T02:17:08.611Z,64.03
2024-02-24T02:19:50.894Z,63.86
2024-02-24T02:22:26.925Z,61.90
2024-02-24T02:24:55.179Z,63.96
2024-02-24T02:27:26.764Z,65.56
2024-02-24T02:30:05.200Z,65.37
2024-02-24T02:32:33.722Z,65.73
2024-02-24T02:35:07.726Z,61.22
2024-02-24T02:37:37.546Z,64.46
2024-02-24T02:40:06.894Z,64.92
2024-02-24T02:42:35.746Z,62.93
2024-02-24T02:45:05.136Z,62.70
2024-02-24T02:47:33.795Z,61.26
2024-02-24T02:50:09.582Z,62.58
2024-02-24T02:52:39.660Z,64.74
2024-02-24T02:55:11.549Z,63.32
2024-02-24T02:57:48.852Z,64.26
2024-02-24T03:00:20.539Z,67.89
2024-02-24T03:02:52.337Z,65.15
2024-02-24T03:05:20.959Z,63.98
2024-02-24T03:07:50.616Z,64.99
2024-02-24T03:10:19.090Z,66.92
2024-02-24T03:12:50.158Z,66.16
2024-02-24T03:15:18.847Z,63.88
2024-02-24T03:17:53.222Z,61.14
2024-02-24T03:20:21.621Z,64.19
2024-02-24T03:22:53.654Z,65.54
2024-02-24T03:25:22.078Z,69.13
2024-02-24T03:27:52.983Z,63.22
2024-02-24T03:30:21.329Z,64.34
2024-02-24T03:32:49.732Z,66.01
2024-02-24T03:35:18.080Z,64.37
2024-02-24T03:37:46.380Z,64.84
2024-02-24T03:40:19.293Z,62.16
2024-02-24T03:42:56.475Z,65.44
2024-02-24T03:45:26.906Z,64.46
2024-02-24T03:47:55.473Z,61.98
2024-02-24T03:50:30.093Z,62.11
2024-02-24T03:53:00.702Z,60.63
2024-02-24T03:55:30.602Z,63.02
2024-02-24T03:57:59.222Z,63.00
2024-02-24T04:00:27.820Z,61.85
2024-02-24T04:02:59.185Z,61.70
2024-02-24T04:05:33.552Z,64.49
2024-02-24T04:08:01.891Z,65.05
2024-02-24T04:10:31.542Z,64.58
2024-02-24T04:13:00.090Z,63.94
2024-02-24T04:15:28.766Z,66.57
2024-02-24T04:17:57.498Z,65.58
2024-02-24T04:20:31.857Z,67.39
2024-02-24T04:23:00.139Z,65.29
2024-02-24T04:25:36.430Z,64.77
2024-02-24T04:28:14.353Z,67.64
2024-02-24T04:30:48.967Z,65.96
2024-02-24T04:33:29.500Z,68.27
2024-02-24T04:35:58.469Z,68.86
2024-02-24T04:38:26.886Z,66.03
2024-02-24T04:41:02.367Z,65.52
2024-02-24T04:43:33.341Z,63.58
2024-02-24T04:46:02.723Z,62.64
2024-02-24T04:48:31.338Z,60.96
2024-02-24T04:51:06.543Z,62.95
2024-02-24T04:53:37.990Z,63.37
2024-02-24T04:56:08.555Z,62.48
2024-02-24T04:58:36.856Z,62.66
2024-02-24T05:01:13.347Z,60.63
2024-02-24T05:03:41.936Z,62.58
2024-02-24T05:06:16.101Z,63.44
2024-02-24T05:08:45.152Z,61.98
2024-02-24T05:11:20.766Z,61.93
2024-02-24T05:13:51.338Z,59.82
2024-02-24T05:16:19.609Z,61.04
2024-02-24T05:18:47.988Z,61.06
2024-02-24T05:21:22.944Z,60.83
2024-02-24T05:23:51.589Z,58.76
2024-02-24T05:26:28.226Z,59.58
2024-02-24T05:28:56.583Z,64.06
2024-02-24T05:31:30.784Z,62.62
2024-02-24T05:33:59.435Z,63.51
2024-02-24T05:36:27.783Z,62.08
2024-02-24T05:38:59.417Z,63.24
2024-02-24T05:41:32.433Z,61.37
2024-02-24T05:44:03.834Z,61.83
2024-02-24T05:46:32.448Z,60.37
2024-02-24T05:49:06.463Z,61.28
2024-02-24T05:51:37.488Z,60.84
2024-02-24T05:54:08.520Z,62.59
2024-02-24T05:56:38.581Z,64.47
2024-02-24T05:59:10.158Z,65.25
2024-02-24T06:01:38.792Z,61.95
2024-02-24T06:04:10.482Z,60.50
2024-02-24T06:06:42.188Z,62.63
2024-02-24T06:09:11.325Z,63.66
2024-02-24T06:11:41.157Z,64.44
2024-02-24T06:14:12.352Z,63.34
2024-02-24T06:16:51.738Z,66.20
2024-02-24T06:19:22.449Z,65.36
2024-02-24T06:21:50.822Z,64.13
2024-02-24T06:24:19.122Z,63.55
2024-02-24T06:26:55.220Z,60.69
2024-02-24T06:29:24.403Z,62.94
2024-02-24T06:31:52.719Z,62.60
2024-02-24T06:34:21.020Z,63.51
2024-02-24T06:36:50.043Z,62.46
2024-02-24T06:39:21.406Z,60.83
2024-02-24T06:41:54.491Z,59.31
2024-02-24T06:44:23.145Z,60.73
2024-02-24T06:46:57.962Z,63.98
2024-02-24T06:49:32.591Z,65.06
2024-02-24T06:52:01.240Z,62.20
2024-02-24T06:54:29.818Z,60.17
2024-02-24T06:57:01.577Z,62.38
2024-02-24T06:59:31.074Z,60.17
2024-02-24T07:02:02.752Z,58.88
2024-02-24T07:04:34.403Z,60.67
2024-02-24T07:07:03.245Z,61.25
2024-02-24T07:09:38.016Z,62.09
2024-02-24T07:12:09.102Z,60.43
2024-02-24T07:14:48.324Z,63.86
2024-02-24T07:17:19.854Z,63.90
2024-02-24T07:19:48.434Z,63.55
2024-02-24T07:22:17.122Z,62.70
2024-02-24T07:24:45.731Z,64.73
2024-02-24T07:27:15.871Z,64.22
2024-02-24T07:29:44.545Z,62.86
2024-02-24T07:32:13.130Z,62.68
2024-02-24T07:34:51.472Z,63.67
2024-02-24T07:37:19.828Z,61.58
2024-02-24T07:39:48.121Z,61.68
2024-02-24T07:42:21.254Z,61.02
2024-02-24T07:44:49.589Z,62.50
2024-02-24T07:47:18.809Z,62.37
2024-02-24T07:49:50.299Z,66.04
2024-02-24T07:52:19.800Z,67.61
2024-02-24T07:54:51.314Z,65.45
2024-02-24T07:57:21.257Z,65.66
2024-02-24T07:59:52.583Z,64.01
2024-02-24T08:02:20.909Z,67.03
2024-02-24T08:04:51.639Z,66.49
2024-02-24T08:07:19.974Z,64.99
2024-02-24T08:09:48.544Z,68.53
2024-02-24T08:12:24.129Z,68.79
2024-02-24T08:14:55.589Z,68.25
2024-02-24T08:17:23.992Z,68.24
2024-02-24T08:19:55.092Z,68.08
2024-02-24T08:22:23.379Z,68.07
2024-02-24T08:24:54.437Z,71.35
2024-02-24T08:27:24.085Z,70.66
2024-02-24T08:29:52.426Z,68.47
2024-02-24T08:32:20.723Z,69.59
2024-02-24T08:34:51.983Z,70.57
2024-02-24T08:37:20.315Z,70.73
2024-02-24T08:39:48.606Z,67.88
2024-02-24T08:42:19.872Z,68.20
2024-02-24T08:44:49.594Z,72.50
2024-02-24T08:47:20.952Z,71.66
2024-02-24T08:49:52.304Z,69.98
2024-02-24T08:52:35.275Z,66.41
2024-02-24T08:55:10.639Z,67.04
2024-02-24T08:57:51.276Z,66.26
2024-02-24T09:00:21.909Z,69.64
2024-02-24T09:02:53.522Z,71.10
2024-02-24T09:05:22.035Z,72.81
2024-02-24T09:07:54.045Z,70.28
2024-02-24T09:10:31.123Z,66.49
2024-02-24T09:12:59.677Z,63.86
2024-02-24T09:15:32.089Z,64.92
2024-02-24T09:18:09.694Z,66.55
2024-02-24T09:20:44.303Z,70.64
2024-02-24T09:23:18.561Z,68.16
2024-02-24T09:25:46.869Z,66.46
2024-02-24T09:28:15.182Z,68.58
2024-02-24T09:30:50.265Z,72.20
2024-02-24T09:33:21.612Z,70.63
2024-02-24T09:35:52.301Z,64.50
2024-02-24T09:38:39.857Z,66.99
2024-02-24T09:41:08.164Z,67.61
2024-02-24T09:43:38.321Z,65.25
2024-02-24T09:46:09.383Z,66.02
2024-02-24T09:48:48.656Z,64.86
2024-02-24T09:51:19.615Z,67.12
2024-02-24T09:53:53.631Z,71.60
2024-02-24T09:56:24.759Z,67.67
2024-02-24T09:58:54.723Z,68.76
2024-02-24T10:01:26.934Z,68.44
2024-02-24T10:03:55.962Z,69.10
2024-02-24T10:06:28.189Z,70.57
2024-02-24T10:08:56.549Z,69.49
2024-02-24T10:11:25.406Z,70.63
2024-02-24T10:14:07.591Z,69.32
2024-02-24T10:16:40.831Z,65.67
2024-02-24T10:19:09.586Z,66.71
2024-02-24T10:21:40.473Z,65.82
2024-02-24T10:24:12.328Z,67.19
2024-02-24T10:26:41.080Z,68.81
2024-02-24T10:29:09.349Z,68.44
2024-02-24T10:31:38.372Z,61.31
2024-02-24T10:34:15.912Z,65.58
2024-02-24T10:36:51.732Z,65.55
2024-02-24T10:39:20.691Z,66.77
2024-02-24T10:42:06.046Z,66.44
2024-02-24T10:44:44.120Z,65.47
2024-02-24T10:47:15.320Z,63.72
2024-02-24T10:49:45.049Z,65.99
2024-02-24T10:52:18.623Z,64.62
2024-02-24T10:54:57.149Z,65.24
2024-02-24T10:57:33.048Z,66.07
2024-02-24T11:00:32.816Z,59.97
2024-02-24T11:03:02.629Z,61.03
2024-02-24T11:05:37.764Z,61.90
2024-02-24T11:08:38.549Z,63.58
2024-02-24T11:11:12.253Z,66.43
2024-02-24T11:13:59.453Z,60.54
2024-02-24T11:16:37.031Z,64.29
2024-02-24T11:19:11.763Z,61.76
2024-02-24T11:22:04.865Z,62.92
2024-02-24T11:24:40.371Z,62.24
2024-02-24T11:27:12.616Z,59.39
2024-02-24T11:29:50.066Z,62.43
2024-02-24T11:32:18.527Z,65.95
2024-02-24T11:34:47.369Z,61.62
2024-02-24T11:37:20.457Z,62.25
2024-02-24T11:39:56.249Z,65.05
2024-02-24T11:42:25.394Z,59.61
2024-02-24T11:45:04.893Z,58.24
2024-02-24T11:47:38.444Z,60.33
2024-02-24T11:50:08.324Z,56.88
2024-02-24T11:52:38.561Z,56.54
2024-02-24T11:55:10.655Z,62.88
2024-02-24T11:57:38.942Z,61.46
2024-02-24T12:00:12.344Z,56.72
2024-02-24T12:02:40.967Z,58.58
2024-02-24T12:05:15.637Z,55.34
2024-02-24T12:07:46.204Z,58.52
2024-02-24T12:10:14.857Z,58.96
2024-02-24T12:12:50.061Z,56.42
2024-02-24T12:15:21.414Z,63.08
2024-02-24T12:17:51.114Z,58.75
2024-02-24T12:20:26.314Z,61.24
2024-02-24T12:23:06.756Z,57.27
2024-02-24T12:25:41.196Z,57.42
2024-02-24T12:28:09.493Z,59.29
2024-02-24T12:30:41.509Z,56.17
2024-02-24T12:33:17.731Z,57.58
2024-02-24T12:35:49.730Z,62.21
2024-02-24T12:38:22.730Z,57.92
2024-02-24T12:40:53.792Z,59.42
2024-02-24T12:43:22.076Z,52.77
2024-02-24T12:45:50.963Z,55.04
2024-02-24T12:48:23.629Z,56.11
2024-02-24T12:50:52.308Z,57.12
2024-02-24T12:53:22.983Z,61.55
2024-02-24T12:55:51.599Z,50.58
2024-02-24T12:58:24.564Z,61.88
2024-02-24T13:00:53.943Z,56.32
2024-02-24T13:03:24.104Z,57.54
2024-02-24T13:05:53.091Z,54.83
2024-02-24T13:08:22.877Z,51.86
2024-02-24T13:10:54.653Z,55.13
2024-02-24T13:13:23.255Z,55.76
2024-02-24T13:15:51.777Z,54.99
2024-02-24T13:18:20.517Z,53.88
2024-02-24T13:20:51.964Z,57.16
2024-02-24T13:23:30.734Z,58.68
2024-02-24T13:26:02.433Z,58.27
2024-02-24T13:28:30.747Z,56.19
2024-02-24T13:31:10.936Z,52.61
2024-02-24T13:33:39.797Z,55.03
2024-02-24T13:36:09.382Z,55.56
2024-02-24T13:38:45.383Z,59.85
2024-02-24T13:41:17.304Z,58.16
2024-02-24T13:43:45.960Z,60.78
2024-02-24T13:46:20.354Z,58.86
2024-02-24T13:49:03.143Z,61.62
2024-02-24T13:51:32.660Z,56.05
2024-02-24T13:54:05.516Z,60.61
2024-02-24T13:56:34.231Z,69.69
2024-02-24T13:59:06.012Z,71.11
2024-02-24T14:01:37.334Z,70.89
2024-02-24T14:04:14.805Z,71.08
2024-02-24T14:06:46.017Z,66.21
2024-02-24T14:09:21.967Z,61.80
2024-02-24T14:11:54.135Z,63.67
2024-02-24T14:14:22.793Z,61.21
2024-02-24T14:16:57.524Z,60.64
2024-02-24T14:19:33.621Z,60.85
2024-02-24T14:22:02.451Z,57.72
2024-02-24T14:24:35.391Z,59.49
2024-02-24T14:27:03.731Z,58.96
2024-02-24T14:29:32.035Z,60.89
2024-02-24T14:32:00.673Z,61.44
2024-02-24T14:34:29.322Z,68.03
2024-02-24T14:37:00.814Z,60.53
2024-02-24T14:39:32.268Z,64.02
2024-02-24T14:42:05.154Z,62.95
2024-02-24T14:44:41.363Z,65.29
2024-02-24T14:47:09.911Z,65.62
2024-02-24T14:49:44.208Z,60.39
2024-02-24T14:52:17.712Z,62.93
2024-02-24T14:54:55.269Z,62.38
2024-02-24T14:57:25.263Z,63.35
2024-02-24T14:59:56.625Z,62.25
2024-02-24T15:02:40.059Z,60.90
2024-02-24T15:05:20.890Z,61.53
2024-02-24T15:07:49.669Z,61.58
2024-02-24T15:10:18.473Z,59.29
2024-02-24T15:12:48.391Z,58.82
2024-02-24T15:15:20.000Z,63.34
2024-02-24T15:17:53.617Z,58.03
2024-02-24T15:20:22.743Z,63.64
2024-02-24T15:22:54.151Z,58.73
2024-02-24T15:25:23.382Z,56.70
2024-02-24T15:27:53.337Z,62.80
2024-02-24T15:30:23.136Z,60.56
2024-02-24T15:32:56.436Z,56.86
2024-02-24T15:35:32.138Z,60.40
2024-02-24T15:38:06.958Z,56.75
2024-02-24T15:40:40.989Z,63.01
2024-02-24T15:43:12.066Z,58.01
2024-02-24T15:45:48.188Z,60.35
2024-02-24T15:48:22.654Z,57.10
2024-02-24T15:50:58.336Z,63.09
2024-02-24T15:53:26.940Z,62.29
2024-02-24T15:56:00.958Z,60.63
2024-02-24T15:58:39.061Z,62.83
2024-02-24T16:01:11.011Z,59.79
2024-02-24T16:03:42.609Z,60.77
2024-02-24T16:06:11.630Z,61.27
2024-02-24T16:08:43.675Z,65.83
2024-02-24T16:11:14.862Z,59.35
2024-02-24T16:13:44.508Z,61.88
2024-02-24T16:16:15.804Z,61.64
2024-02-24T16:18:44.646Z,62.37
2024-02-24T16:21:16.504Z,60.61
2024-02-24T16:23:47.960Z,65.23
2024-02-24T16:26:21.839Z,60.32
2024-02-24T16:28:55.661Z,59.79
2024-02-24T16:31:23.959Z,60.99
2024-02-24T16:33:53.740Z,65.30
2024-02-24T16:36:22.450Z,61.04
2024-02-24T16:39:00.832Z,64.49
2024-02-24T16:41:32.135Z,63.75
2024-02-24T16:44:07.861Z,58.45
2024-02-24T16:46:44.203Z,62.47
2024-02-24T16:49:14.078Z,56.49
2024-02-24T16:51:43.558Z,55.70
2024-02-24T16:54:12.968Z,63.72
2024-02-24T16:56:44.725Z,61.71
2024-02-24T16:59:17.810Z,62.89
2024-02-24T17:01:46.424Z,62.12
2024-02-24T17:04:24.149Z,61.13
2024-02-24T17:06:52.792Z,58.25
2024-02-24T17:09:23.887Z,63.36
2024-02-24T17:11:56.612Z,62.00
2024-02-24T17:14:26.714Z,61.15
2024-02-24T17:16:57.574Z,59.81
2024-02-24T17:19:27.965Z,60.62
2024-02-24T17:21:56.656Z,60.98
2024-02-24T17:24:27.989Z,61.33
2024-02-24T17:27:03.405Z,61.22
2024-02-24T17:29:42.195Z,61.79
2024-02-24T17:32:22.738Z,59.92
2024-02-24T17:34:51.389Z,59.29
2024-02-24T17:37:23.122Z,61.19
2024-02-24T17:39:56.692Z,56.60
2024-02-24T17:42:25.278Z,61.18
2024-02-24T17:45:02.629Z,60.71
2024-02-24T17:47:34.217Z,58.74
2024-02-24T17:50:02.857Z,61.29
2024-02-24T17:52:32.437Z,59.25
2024-02-24T17:55:01.004Z,61.52
2024-02-24T17:57:30.489Z,57.51
2024-02-24T18:00:00.600Z,64.38
2024-02-24T18:02:29.335Z,62.41
2024-02-24T18:05:00.932Z,62.14
2024-02-24T18:07:32.299Z,57.80
2024-02-24T18:10:03.903Z,59.87
2024-02-24T18:12:37.599Z,62.05
2024-02-24T18:15:09.087Z,61.94
2024-02-24T18:17:37.777Z,60.65
2024-02-24T18:20:15.273Z,61.37
2024-02-24T18:22:46.595Z,64.64
2024-02-24T18:25:15.215Z,64.36
2024-02-24T18:27:43.920Z,60.94
2024-02-24T18:30:19.769Z,60.72
2024-02-24T18:32:57.116Z,59.76
2024-02-24T18:35:25.514Z,60.68
2024-02-24T18:37:53.788Z,62.33
2024-02-24T18:40:22.062Z,59.07
2024-02-24T18:42:53.382Z,58.94
2024-02-24T18:45:23.049Z,62.98
2024-02-24T18:47:54.556Z,61.54
2024-02-24T18:50:22.949Z,57.94
2024-02-24T18:52:54.643Z,64.73
2024-02-24T18:55:23.183Z,62.19
2024-02-24T18:57:51.806Z,64.74
2024-02-24T19:00:22.703Z,61.71
2024-02-24T19:02:51.330Z,58.41
2024-02-24T19:05:20.133Z,62.22
2024-02-24T19:07:50.976Z,59.60
2024-02-24T19:10:22.918Z,62.03
2024-02-24T19:12:52.321Z,58.97
2024-02-24T19:15:22.296Z,61.18
2024-02-24T19:17:51.479Z,65.44
2024-02-24T19:20:20.334Z,59.12
2024-02-24T19:22:48.955Z,64.37
2024-02-24T19:25:17.778Z,61.35
2024-02-24T19:27:49.037Z,62.06
2024-02-24T19:30:17.546Z,62.03
2024-02-24T19:32:47.367Z,61.84
2024-02-24T19:35:29.109Z,61.74
2024-02-24T19:38:13.463Z,65.64
2024-02-24T19:40:43.074Z,62.62
2024-02-24T19:43:11.822Z,63.62
2024-02-24T19:45:43.409Z,62.11
2024-02-24T19:48:13.600Z,61.52
2024-02-24T19:50:46.243Z,60.91
2024-02-24T19:53:17.671Z,63.17
2024-02-24T19:55:49.091Z,60.90
2024-02-24T19:58:28.856Z,63.67
2024-02-24T20:01:12.626Z,65.55
2024-02-24T20:03:45.136Z,61.21
2024-02-24T20:06:13.559Z,60.22
2024-02-24T20:08:42.044Z,62.39
2024-02-24T20:11:10.806Z,64.74
2024-02-24T20:13:41.906Z,61.18
2024-02-24T20:16:19.313Z,66.20
2024-02-24T20:18:53.673Z,61.60
2024-02-24T20:21:22.115Z,63.14
2024-02-24T20:23:50.447Z,62.44
2024-02-24T20:26:18.710Z,60.41
2024-02-24T20:28:47.034Z,66.35
2024-02-24T20:31:15.582Z,64.76
2024-02-24T20:33:53.259Z,62.20
2024-02-24T20:36:32.192Z,61.07
2024-02-24T20:39:07.224Z,64.05
2024-02-24T20:41:41.425Z,60.76
2024-02-24T20:44:20.090Z,64.28
2024-02-24T20:46:48.741Z,65.75
2024-02-24T20:49:23.016Z,63.81
2024-02-24T20:51:58.425Z,61.18
2024-02-24T20:54:36.037Z,66.08
2024-02-24T20:57:04.939Z,64.65
2024-02-24T20:59:42.478Z,60.72
2024-02-24T21:02:11.308Z,63.03
2024-02-24T21:04:40.033Z,64.38
2024-02-24T21:07:11.793Z,61.95
2024-02-24T21:09:40.146Z,66.33
2024-02-24T21:12:13.113Z,64.28
2024-02-24T21:14:44.711Z,62.51
2024-02-24T21:17:13.314Z,63.17
2024-02-24T21:19:50.666Z,62.62
2024-02-24T21:22:20.434Z,67.42
2024-02-24T21:24:49.023Z,66.94
2024-02-24T21:27:20.343Z,65.17
2024-02-24T21:29:51.646Z,63.62
2024-02-24T21:32:22.972Z,64.26
2024-02-24T21:34:54.297Z,62.59
2024-02-24T21:37:26.596Z,63.83
2024-02-24T21:39:58.198Z,65.58
2024-02-24T21:42:26.796Z,64.67
2024-02-24T21:45:04.799Z,66.04
2024-02-24T21:47:42.420Z,64.80
2024-02-24T21:50:12.224Z,61.90
2024-02-24T21:52:44.861Z,66.27
2024-02-24T21:55:16.366Z,64.06
2024-02-24T21:57:47.489Z,61.66
2024-02-24T22:00:19.762Z,63.22
2024-02-24T22:02:48.239Z,67.26
2024-02-24T22:05:19.902Z,66.18
2024-02-24T22:07:51.992Z,65.04
2024-02-24T22:10:24.725Z,68.32
2024-02-24T22:12:59.371Z,64.76
2024-02-24T22:15:36.796Z,63.47
2024-02-24T22:18:06.338Z,62.44
2024-02-24T22:20:34.992Z,64.44
2024-02-24T22:23:10.643Z,65.90
2024-02-24T22:25:39.237Z,66.52
2024-02-24T22:28:08.053Z,65.49
2024-02-24T22:30:36.651Z,65.06
2024-02-24T22:33:05.571Z,64.15
2024-02-24T22:35:34.027Z,63.29
2024-02-24T22:38:03.288Z,63.86
2024-02-24T22:40:40.413Z,62.61
2024-02-24T22:43:08.698Z,64.10
2024-02-24T22:45:37.312Z,66.56
2024-02-24T22:48:06.878Z,65.85
2024-02-24T22:50:44.367Z,61.97
2024-02-24T22:53:12.932Z,67.64
2024-02-24T22:55:43.421Z,64.36
2024-02-24T22:58:12.548Z,65.50
2024-02-24T23:00:41.567Z,63.85
2024-02-24T23:03:16.005Z,61.47
2024-02-24T23:05:44.604Z,64.94
2024-02-24T23:08:15.734Z,62.85
2024-02-24T23:10:47.855Z,62.84
2024-02-24T23:13:18.986Z,64.28
2024-02-24T23:15:53.451Z,62.40
2024-02-24T23:18:25.285Z,61.80
2024-02-24T23:20:56.522Z,63.00
2024-02-24T23:23:24.961Z,61.80
2024-02-24T23:26:01.414Z,64.35
2024-02-24T23:28:32.508Z,64.31
2024-02-24T23:31:03.797Z,65.46
2024-02-24T23:33:33.649Z,63.71
2024-02-24T23:36:05.519Z,63.22
2024-02-24T23:38:33.995Z,64.62
2024-02-24T23:41:03.730Z,64.76
2024-02-24T23:43:34.764Z,66.18
2024-02-24T23:46:03.076Z,60.59
2024-02-24T23:48:44.893Z,62.21
2024-02-24T23:51:21.453Z,64.40
2024-02-24T23:53:52.916Z,64.20
2024-02-24T23:56:26.205Z,65.82
2024-02-24T23:58:54.802Z,65.10
